createdAt,value
2017-03-20T00:00:11.214Z,0
2017-03-20T00:01:11.243Z,0
2017-03-20T00:02:11.519Z,0
2017-03-20T00:03:11.299Z,0
2017-03-20T00:04:11.637Z,0
2017-03-20T00:05:11.672Z,0
2017-03-20T00:06:11.383Z,0
2017-03-20T00:07:12.007Z,0
2017-03-20T00:08:11.759Z,0
2017-03-20T00:09:11.465Z,0
2017-03-20T00:10:11.522Z,0
2017-03-20T00:11:11.241Z,0
2017-03-20T00:12:12.115Z,0
2017-03-20T00:13:11.569Z,0
2017-03-20T00:14:11.290Z,0
2017-03-20T00:15:11.327Z,0
2017-03-20T00:16:11.649Z,0
2017-03-20T00:17:12.247Z,0
2017-03-20T00:18:11.405Z,0
2017-03-20T00:19:12.074Z,0
2017-03-20T00:20:12.077Z,0
2017-03-20T00:21:12.135Z,0
2017-03-20T00:22:12.387Z,0
2017-03-20T00:23:11.857Z,0
2017-03-20T00:24:12.213Z,0
2017-03-20T00:25:12.226Z,0
2017-03-20T00:26:11.929Z,0
2017-03-20T00:27:12.214Z,0
2017-03-20T00:28:11.988Z,0
2017-03-20T00:29:12.333Z,0
2017-03-20T00:30:12.050Z,0
2017-03-20T00:31:12.064Z,0
2017-03-20T00:32:12.350Z,0
2017-03-20T00:33:12.443Z,0
2017-03-20T00:34:12.481Z,0
2017-03-20T00:35:12.178Z,0
2017-03-20T00:36:12.522Z,0
2017-03-20T00:37:12.804Z,0
2017-03-20T00:38:12.263Z,0
2017-03-20T00:39:12.653Z,0
2017-03-20T00:40:12.325Z,0
2017-03-20T00:41:12.662Z,0
2017-03-20T00:42:12.366Z,0
2017-03-20T00:43:12.715Z,0
2017-03-20T00:44:12.433Z,0
2017-03-20T00:45:12.142Z,0
2017-03-20T00:46:11.853Z,0
2017-03-20T00:47:12.518Z,0
2017-03-20T00:48:12.582Z,0
2017-03-20T00:49:12.565Z,0
2017-03-20T00:50:12.277Z,0
2017-03-20T00:51:12.618Z,0
2017-03-20T00:52:12.958Z,0
2017-03-20T00:53:12.680Z,0
2017-03-20T00:54:12.705Z,0
2017-03-20T00:55:13.048Z,0
2017-03-20T00:56:12.790Z,0
2017-03-20T00:57:13.094Z,0
2017-03-20T00:58:13.139Z,0
2017-03-20T00:59:13.152Z,0
2017-03-20T01:00:13.194Z,0
2017-03-20T01:01:13.200Z,0
2017-03-20T01:02:13.238Z,0
2017-03-20T01:03:13.207Z,0
2017-03-20T01:04:13.286Z,0
2017-03-20T01:05:13.001Z,0
2017-03-20T01:06:13.339Z,0
2017-03-20T01:07:12.758Z,0
2017-03-20T01:08:13.023Z,0
2017-03-20T01:09:13.436Z,0
2017-03-20T01:10:13.456Z,0
2017-03-20T01:11:13.485Z,0
2017-03-20T01:12:13.196Z,0
2017-03-20T01:13:13.791Z,0
2017-03-20T01:14:13.572Z,0
2017-03-20T01:15:13.628Z,0
2017-03-20T01:16:13.313Z,0
2017-03-20T01:17:13.337Z,0
2017-03-20T01:18:13.943Z,0
2017-03-20T01:19:13.712Z,0
2017-03-20T01:20:13.736Z,0
2017-03-20T01:21:13.749Z,0
2017-03-20T01:22:13.477Z,0
2017-03-20T01:23:14.062Z,0
2017-03-20T01:24:13.532Z,0
2017-03-20T01:25:13.556Z,0
2017-03-20T01:26:13.584Z,0
2017-03-20T01:27:13.610Z,0
2017-03-20T01:28:14.202Z,0
2017-03-20T01:29:13.682Z,0
2017-03-20T01:30:13.691Z,0
2017-03-20T01:31:14.033Z,0
2017-03-20T01:32:13.433Z,0
2017-03-20T01:33:14.026Z,0
2017-03-20T01:34:13.811Z,0
2017-03-20T01:35:14.155Z,0
2017-03-20T01:36:14.169Z,0
2017-03-20T01:37:14.196Z,0
2017-03-20T01:38:14.484Z,0
2017-03-20T01:39:14.250Z,0
2017-03-20T01:40:13.973Z,0
2017-03-20T01:41:13.997Z,0
2017-03-20T01:42:14.013Z,0
2017-03-20T01:43:14.026Z,0
2017-03-20T01:44:13.767Z,0
2017-03-20T01:45:14.107Z,0
2017-03-20T01:46:14.129Z,0
2017-03-20T01:47:14.178Z,0
2017-03-20T01:48:14.125Z,0
2017-03-20T01:49:14.526Z,0
2017-03-20T01:50:14.570Z,0
2017-03-20T01:51:14.580Z,0
2017-03-20T01:52:14.609Z,0
2017-03-20T01:53:14.889Z,0
2017-03-20T01:54:14.663Z,0
2017-03-20T01:55:14.382Z,0
2017-03-20T01:56:14.719Z,0
2017-03-20T01:57:14.115Z,0
2017-03-20T01:58:15.029Z,0
2017-03-20T01:59:14.178Z,0
2017-03-20T02:00:13.879Z,0
2017-03-20T02:01:14.535Z,0
2017-03-20T02:02:14.881Z,0
2017-03-20T02:03:14.854Z,0
2017-03-20T02:04:14.627Z,0
2017-03-20T02:05:14.655Z,0
2017-03-20T02:06:14.359Z,0
2017-03-20T02:07:14.401Z,0
2017-03-20T02:08:14.990Z,0
2017-03-20T02:09:15.113Z,0
2017-03-20T02:10:15.093Z,0
2017-03-20T02:11:15.122Z,0
2017-03-20T02:12:14.845Z,0
2017-03-20T02:13:15.133Z,0
2017-03-20T02:14:14.925Z,0
2017-03-20T02:15:14.927Z,0
2017-03-20T02:16:15.268Z,0
2017-03-20T02:17:14.980Z,0
2017-03-20T02:18:14.385Z,0
2017-03-20T02:19:15.038Z,0
2017-03-20T02:20:14.438Z,0
2017-03-20T02:21:15.403Z,0
2017-03-20T02:22:15.427Z,0
2017-03-20T02:23:15.145Z,0
2017-03-20T02:24:14.906Z,0
2017-03-20T02:25:15.506Z,0
2017-03-20T02:26:15.226Z,0
2017-03-20T02:27:15.251Z,0
2017-03-20T02:28:15.647Z,0
2017-03-20T02:29:15.625Z,0
2017-03-20T02:30:15.650Z,0
2017-03-20T02:31:15.362Z,0
2017-03-20T02:32:15.083Z,0
2017-03-20T02:33:15.436Z,0
2017-03-20T02:34:15.137Z,0
2017-03-20T02:35:15.166Z,0
2017-03-20T02:36:15.498Z,0
2017-03-20T02:37:15.834Z,0
2017-03-20T02:38:15.244Z,0
2017-03-20T02:39:15.533Z,0
2017-03-20T02:40:15.921Z,0
2017-03-20T02:41:15.638Z,0
2017-03-20T02:42:15.979Z,0
2017-03-20T02:43:16.004Z,0
2017-03-20T02:44:16.291Z,0
2017-03-20T02:45:16.057Z,0
2017-03-20T02:46:15.778Z,0
2017-03-20T02:47:15.811Z,0
2017-03-20T02:48:15.820Z,0
2017-03-20T02:49:16.112Z,0
2017-03-20T02:50:15.889Z,0
2017-03-20T02:51:15.906Z,0
2017-03-20T02:52:15.641Z,0
2017-03-20T02:53:15.972Z,0
2017-03-20T02:54:16.256Z,0
2017-03-20T02:55:16.021Z,0
2017-03-20T02:56:16.049Z,0
2017-03-20T02:57:16.075Z,0
2017-03-20T02:58:16.099Z,0
2017-03-20T02:59:16.079Z,0
2017-03-20T03:00:16.164Z,0
2017-03-20T03:01:16.498Z,0
2017-03-20T03:02:16.525Z,0
2017-03-20T03:03:16.571Z,0
2017-03-20T03:04:16.835Z,0
2017-03-20T03:05:16.600Z,0
2017-03-20T03:06:15.701Z,0
2017-03-20T03:07:16.661Z,0
2017-03-20T03:08:16.383Z,0
2017-03-20T03:09:16.682Z,0
2017-03-20T03:10:15.804Z,0
2017-03-20T03:11:16.768Z,0
2017-03-20T03:12:15.863Z,0
2017-03-20T03:13:15.907Z,0
2017-03-20T03:14:16.840Z,0
2017-03-20T03:15:16.880Z,0
2017-03-20T03:16:16.593Z,0
2017-03-20T03:17:16.622Z,0
2017-03-20T03:18:16.659Z,0
2017-03-20T03:19:17.248Z,0
2017-03-20T03:20:16.704Z,0
2017-03-20T03:21:16.728Z,0
2017-03-20T03:22:16.445Z,0
2017-03-20T03:23:16.787Z,0
2017-03-20T03:24:17.104Z,0
2017-03-20T03:25:16.840Z,0
2017-03-20T03:26:17.181Z,0
2017-03-20T03:27:16.893Z,0
2017-03-20T03:28:17.271Z,0
2017-03-20T03:29:17.206Z,0
2017-03-20T03:30:16.987Z,0
2017-03-20T03:31:17.317Z,0
2017-03-20T03:32:16.718Z,0
2017-03-20T03:33:17.370Z,0
2017-03-20T03:34:17.344Z,0
2017-03-20T03:35:17.115Z,0
2017-03-20T03:36:17.468Z,0
2017-03-20T03:37:17.485Z,0
2017-03-20T03:38:17.198Z,0
2017-03-20T03:39:17.786Z,0
2017-03-20T03:40:16.934Z,0
2017-03-20T03:41:16.964Z,0
2017-03-20T03:42:17.330Z,0
2017-03-20T03:43:17.646Z,0
2017-03-20T03:44:17.928Z,0
2017-03-20T03:45:17.078Z,0
2017-03-20T03:46:16.821Z,0
2017-03-20T03:47:17.133Z,0
2017-03-20T03:48:17.786Z,0
2017-03-20T03:49:18.067Z,0
2017-03-20T03:50:17.832Z,0
2017-03-20T03:51:17.548Z,0
2017-03-20T03:52:17.889Z,0
2017-03-20T03:53:17.597Z,0
2017-03-20T03:54:18.195Z,0
2017-03-20T03:55:17.974Z,0
2017-03-20T03:56:17.998Z,0
2017-03-20T03:57:18.028Z,0
2017-03-20T03:58:17.422Z,0
2017-03-20T03:59:17.706Z,0
2017-03-20T04:00:18.106Z,0
2017-03-20T04:01:17.508Z,0
2017-03-20T04:02:17.848Z,0
2017-03-20T04:03:17.570Z,0
2017-03-20T04:04:18.154Z,0
2017-03-20T04:05:17.931Z,0
2017-03-20T04:06:17.639Z,0
2017-03-20T04:07:18.297Z,0
2017-03-20T04:08:18.322Z,0
2017-03-20T04:09:18.296Z,0
2017-03-20T04:10:17.762Z,0
2017-03-20T04:11:18.407Z,0
2017-03-20T04:12:18.436Z,0
2017-03-20T04:13:18.460Z,0
2017-03-20T04:14:18.742Z,0
2017-03-20T04:15:18.199Z,0
2017-03-20T04:16:18.223Z,0
2017-03-20T04:17:18.251Z,0
2017-03-20T04:18:17.973Z,0
2017-03-20T04:19:18.582Z,0
2017-03-20T04:20:18.330Z,0
2017-03-20T04:21:17.775Z,0
2017-03-20T04:22:18.392Z,0
2017-03-20T04:23:18.109Z,0
2017-03-20T04:24:18.698Z,0
2017-03-20T04:25:18.165Z,0
2017-03-20T04:26:18.815Z,0
2017-03-20T04:27:18.840Z,0
2017-03-20T04:28:18.557Z,0
2017-03-20T04:29:19.153Z,0
2017-03-20T04:30:18.922Z,0
2017-03-20T04:31:18.951Z,0
2017-03-20T04:32:18.973Z,0
2017-03-20T04:33:18.696Z,0
2017-03-20T04:34:18.970Z,0
2017-03-20T04:35:18.438Z,0
2017-03-20T04:36:18.774Z,0
2017-03-20T04:37:18.807Z,0
2017-03-20T04:38:18.517Z,0
2017-03-20T04:39:19.426Z,0
2017-03-20T04:40:18.884Z,0
2017-03-20T04:41:18.919Z,0
2017-03-20T04:42:19.248Z,0
2017-03-20T04:43:19.315Z,0
2017-03-20T04:44:19.565Z,0
2017-03-20T04:45:19.014Z,0
2017-03-20T04:46:19.354Z,0
2017-03-20T04:47:19.392Z,0
2017-03-20T04:48:19.416Z,0
2017-03-20T04:49:18.825Z,0
2017-03-20T04:50:18.835Z,0
2017-03-20T04:51:19.489Z,0
2017-03-20T04:52:19.203Z,0
2017-03-20T04:53:19.555Z,0
2017-03-20T04:54:19.270Z,0
2017-03-20T04:55:18.973Z,0
2017-03-20T04:56:19.326Z,0
2017-03-20T04:57:19.351Z,0
2017-03-20T04:58:19.372Z,0
2017-03-20T04:59:19.725Z,0
2017-03-20T05:00:19.464Z,0
2017-03-20T05:01:19.450Z,0
2017-03-20T05:02:19.795Z,0
2017-03-20T05:03:19.512Z,0
2017-03-20T05:04:19.851Z,0
2017-03-20T05:05:19.561Z,0
2017-03-20T05:06:19.897Z,0
2017-03-20T05:07:19.614Z,0
2017-03-20T05:08:19.331Z,0
2017-03-20T05:09:19.669Z,0
2017-03-20T05:10:19.401Z,0
2017-03-20T05:11:19.439Z,0
2017-03-20T05:12:19.750Z,0
2017-03-20T05:13:19.787Z,0
2017-03-20T05:14:20.119Z,0
2017-03-20T05:15:19.833Z,0
2017-03-20T05:16:19.537Z,0
2017-03-20T05:17:19.890Z,4
2017-03-20T05:18:19.919Z,4
2017-03-20T05:19:19.951Z,4
2017-03-20T05:20:19.652Z,4
2017-03-20T05:21:20.300Z,4
2017-03-20T05:22:20.337Z,8
2017-03-20T05:23:20.374Z,4
2017-03-20T05:24:20.084Z,8
2017-03-20T05:25:20.420Z,12
2017-03-20T05:26:19.820Z,12
2017-03-20T05:27:20.149Z,16
2017-03-20T05:28:19.879Z,16
2017-03-20T05:29:20.218Z,16
2017-03-20T05:30:19.932Z,16
2017-03-20T05:31:20.569Z,20
2017-03-20T05:32:20.601Z,20
2017-03-20T05:33:20.327Z,24
2017-03-20T05:34:20.352Z,28
2017-03-20T05:35:20.370Z,32
2017-03-20T05:36:20.087Z,36
2017-03-20T05:37:20.746Z,40
2017-03-20T05:38:20.467Z,44
2017-03-20T05:39:20.175Z,44
2017-03-20T05:40:20.771Z,52
2017-03-20T05:41:20.844Z,60
2017-03-20T05:42:20.250Z,64
2017-03-20T05:43:20.287Z,72
2017-03-20T05:44:19.995Z,80
2017-03-20T05:45:21.211Z,80
2017-03-20T05:46:20.992Z,88
2017-03-20T05:47:20.709Z,88
2017-03-20T05:48:20.726Z,92
2017-03-20T05:49:20.759Z,96
2017-03-20T05:50:21.383Z,112
2017-03-20T05:51:20.803Z,120
2017-03-20T05:52:21.153Z,124
2017-03-20T05:53:21.174Z,132
2017-03-20T05:54:21.223Z,140
2017-03-20T05:55:21.487Z,148
2017-03-20T05:56:20.990Z,160
2017-03-20T05:57:20.653Z,164
2017-03-20T05:58:20.706Z,180
2017-03-20T05:59:21.030Z,196
2017-03-20T06:00:21.615Z,216
2017-03-20T06:01:20.776Z,232
2017-03-20T06:02:20.789Z,236
2017-03-20T06:03:21.449Z,240
2017-03-20T06:04:21.171Z,220
2017-03-20T06:05:21.448Z,220
2017-03-20T06:06:20.909Z,232
2017-03-20T06:07:21.257Z,248
2017-03-20T06:08:21.589Z,272
2017-03-20T06:09:21.615Z,300
2017-03-20T06:10:21.890Z,324
2017-03-20T06:11:21.679Z,336
2017-03-20T06:12:21.069Z,332
2017-03-20T06:13:21.725Z,304
2017-03-20T06:14:21.750Z,292
2017-03-20T06:15:22.019Z,304
2017-03-20T06:16:21.811Z,308
2017-03-20T06:17:21.829Z,316
2017-03-20T06:18:21.862Z,300
2017-03-20T06:19:21.266Z,308
2017-03-20T06:20:22.158Z,316
2017-03-20T06:21:21.003Z,316
2017-03-20T06:22:21.645Z,304
2017-03-20T06:23:22.004Z,292
2017-03-20T06:24:21.403Z,296
2017-03-20T06:25:21.675Z,292
2017-03-20T06:26:21.755Z,268
2017-03-20T06:27:22.103Z,268
2017-03-20T06:28:22.140Z,284
2017-03-20T06:29:22.166Z,296
2017-03-20T06:30:22.118Z,308
2017-03-20T06:31:21.594Z,272
2017-03-20T06:32:21.924Z,280
2017-03-20T06:33:21.953Z,260
2017-03-20T06:34:22.302Z,232
2017-03-20T06:35:22.578Z,240
2017-03-20T06:36:22.342Z,272
2017-03-20T06:37:22.063Z,304
2017-03-20T06:38:22.093Z,396
2017-03-20T06:39:22.122Z,440
2017-03-20T06:40:22.089Z,448
2017-03-20T06:41:22.487Z,508
2017-03-20T06:42:21.903Z,508
2017-03-20T06:43:21.923Z,556
2017-03-20T06:44:22.254Z,600
2017-03-20T06:45:22.533Z,628
2017-03-20T06:46:22.316Z,664
2017-03-20T06:47:22.344Z,652
2017-03-20T06:48:22.365Z,692
2017-03-20T06:49:22.717Z,724
2017-03-20T06:50:22.376Z,720
2017-03-20T06:51:22.446Z,672
2017-03-20T06:52:22.475Z,620
2017-03-20T06:53:22.810Z,692
2017-03-20T06:54:22.537Z,740
2017-03-20T06:55:22.805Z,752
2017-03-20T06:56:22.594Z,828
2017-03-20T06:57:21.987Z,808
2017-03-20T06:58:22.680Z,704
2017-03-20T06:59:22.978Z,624
2017-03-20T07:00:23.252Z,536
2017-03-20T07:01:23.030Z,476
2017-03-20T07:02:22.758Z,476
2017-03-20T07:03:23.084Z,424
2017-03-20T07:04:23.129Z,412
2017-03-20T07:05:23.397Z,392
2017-03-20T07:06:22.860Z,396
2017-03-20T07:07:23.205Z,428
2017-03-20T07:08:23.236Z,444
2017-03-20T07:09:23.258Z,492
2017-03-20T07:10:23.224Z,584
2017-03-20T07:11:23.314Z,588
2017-03-20T07:12:23.335Z,628
2017-03-20T07:13:23.060Z,676
2017-03-20T07:14:23.409Z,708
2017-03-20T07:15:23.661Z,736
2017-03-20T07:16:23.139Z,764
2017-03-20T07:17:23.478Z,712
2017-03-20T07:18:23.188Z,700
2017-03-20T07:19:23.237Z,652
2017-03-20T07:20:23.176Z,612
2017-03-20T07:21:23.266Z,604
2017-03-20T07:22:23.287Z,560
2017-03-20T07:23:23.016Z,680
2017-03-20T07:24:23.044Z,780
2017-03-20T07:25:23.625Z,768
2017-03-20T07:26:23.418Z,656
2017-03-20T07:27:23.437Z,504
2017-03-20T07:28:23.776Z,444
2017-03-20T07:29:23.501Z,400
2017-03-20T07:30:24.080Z,352
2017-03-20T07:31:23.553Z,388
2017-03-20T07:32:23.890Z,428
2017-03-20T07:33:23.919Z,540
2017-03-20T07:34:23.949Z,672
2017-03-20T07:35:23.654Z,680
2017-03-20T07:36:23.997Z,688
2017-03-20T07:37:24.034Z,676
2017-03-20T07:38:23.735Z,716
2017-03-20T07:39:24.094Z,788
2017-03-20T07:40:24.113Z,796
2017-03-20T07:41:23.829Z,840
2017-03-20T07:42:23.851Z,956
2017-03-20T07:43:23.567Z,984
2017-03-20T07:44:23.596Z,936
2017-03-20T07:45:23.932Z,968
2017-03-20T07:46:23.962Z,1036
2017-03-20T07:47:23.996Z,1020
2017-03-20T07:48:23.707Z,1032
2017-03-20T07:49:24.045Z,1040
2017-03-20T07:50:24.389Z,964
2017-03-20T07:51:24.103Z,984
2017-03-20T07:52:24.450Z,940
2017-03-20T07:53:24.459Z,872
2017-03-20T07:54:24.492Z,920
2017-03-20T07:55:24.528Z,980
2017-03-20T07:56:24.549Z,1012
2017-03-20T07:57:23.958Z,1004
2017-03-20T07:58:24.617Z,988
2017-03-20T07:59:24.328Z,1020
2017-03-20T08:00:24.036Z,1016
2017-03-20T08:01:24.312Z,1028
2017-03-20T08:02:24.082Z,1116
2017-03-20T08:03:24.435Z,1200
2017-03-20T08:04:24.144Z,1256
2017-03-20T08:05:24.171Z,1336
2017-03-20T08:06:24.757Z,1416
2017-03-20T08:07:24.855Z,1456
2017-03-20T08:08:24.878Z,1432
2017-03-20T08:09:24.596Z,1412
2017-03-20T08:10:24.935Z,1424
2017-03-20T08:11:25.211Z,1400
2017-03-20T08:12:24.682Z,1312
2017-03-20T08:13:25.017Z,1276
2017-03-20T08:14:25.047Z,1280
2017-03-20T08:15:25.084Z,1348
2017-03-20T08:16:25.360Z,1400
2017-03-20T08:17:25.144Z,1400
2017-03-20T08:18:24.846Z,1416
2017-03-20T08:19:25.192Z,1512
2017-03-20T08:20:25.211Z,1552
2017-03-20T08:21:25.488Z,1496
2017-03-20T08:22:25.001Z,1412
2017-03-20T08:23:24.682Z,1376
2017-03-20T08:24:25.023Z,1344
2017-03-20T08:25:24.731Z,1244
2017-03-20T08:26:25.017Z,1188
2017-03-20T08:27:25.414Z,1236
2017-03-20T08:28:25.435Z,1348
2017-03-20T08:29:25.459Z,1484
2017-03-20T08:30:25.183Z,1568
2017-03-20T08:31:25.448Z,1580
2017-03-20T08:32:25.578Z,1504
2017-03-20T08:33:25.570Z,1368
2017-03-20T08:34:25.598Z,1312
2017-03-20T08:35:25.376Z,1264
2017-03-20T08:36:25.908Z,1296
2017-03-20T08:37:25.692Z,1380
2017-03-20T08:38:25.402Z,1476
2017-03-20T08:39:25.430Z,1460
2017-03-20T08:40:25.447Z,1476
2017-03-20T08:41:25.732Z,1404
2017-03-20T08:42:25.193Z,1240
2017-03-20T08:43:25.234Z,1168
2017-03-20T08:44:25.573Z,1268
2017-03-20T08:45:25.901Z,1272
2017-03-20T08:46:26.228Z,1344
2017-03-20T08:47:25.969Z,1324
2017-03-20T08:48:25.681Z,1324
2017-03-20T08:49:26.017Z,1428
2017-03-20T08:50:25.729Z,1492
2017-03-20T08:51:26.011Z,1524
2017-03-20T08:52:26.107Z,1500
2017-03-20T08:53:25.808Z,1532
2017-03-20T08:54:26.162Z,1592
2017-03-20T08:55:25.865Z,1592
2017-03-20T08:56:26.464Z,1612
2017-03-20T08:57:26.237Z,1560
2017-03-20T08:58:25.958Z,1576
2017-03-20T08:59:26.299Z,1644
2017-03-20T09:00:26.007Z,1784
2017-03-20T09:01:26.595Z,1880
2017-03-20T09:02:26.378Z,1948
2017-03-20T09:03:26.394Z,2000
2017-03-20T09:04:25.814Z,2060
2017-03-20T09:05:25.845Z,2036
2017-03-20T09:06:25.864Z,1920
2017-03-20T09:07:25.884Z,1988
2017-03-20T09:08:26.233Z,1852
2017-03-20T09:09:26.566Z,2240
2017-03-20T09:10:26.596Z,2472
2017-03-20T09:11:26.631Z,2540
2017-03-20T09:12:26.654Z,2556
2017-03-20T09:13:26.365Z,2484
2017-03-20T09:14:26.402Z,2640
2017-03-20T09:15:26.738Z,2708
2017-03-20T09:16:26.451Z,2660
2017-03-20T09:17:27.040Z,2580
2017-03-20T09:18:26.817Z,2548
2017-03-20T09:19:26.542Z,2628
2017-03-20T09:20:26.566Z,2736
2017-03-20T09:21:26.910Z,2704
2017-03-20T09:22:26.908Z,2720
2017-03-20T09:23:26.985Z,2728
2017-03-20T09:24:26.990Z,2664
2017-03-20T09:25:26.697Z,2664
2017-03-20T09:26:26.419Z,2744
2017-03-20T09:27:27.324Z,2856
2017-03-20T09:28:27.101Z,2960
2017-03-20T09:29:26.837Z,3124
2017-03-20T09:30:27.159Z,3272
2017-03-20T09:31:27.187Z,3076
2017-03-20T09:32:26.831Z,3276
2017-03-20T09:33:26.917Z,3320
2017-03-20T09:34:27.257Z,3276
2017-03-20T09:35:27.290Z,3224
2017-03-20T09:36:27.002Z,3396
2017-03-20T09:37:27.288Z,3540
2017-03-20T09:38:27.060Z,3428
2017-03-20T09:39:27.089Z,3536
2017-03-20T09:40:26.798Z,3796
2017-03-20T09:41:27.146Z,4032
2017-03-20T09:42:27.420Z,4012
2017-03-20T09:43:27.208Z,3828
2017-03-20T09:44:27.235Z,3660
2017-03-20T09:45:27.570Z,3412
2017-03-20T09:46:27.286Z,3352
2017-03-20T09:47:27.871Z,3464
2017-03-20T09:48:27.655Z,3512
2017-03-20T09:49:27.369Z,3480
2017-03-20T09:50:27.714Z,3352
2017-03-20T09:51:27.430Z,2916
2017-03-20T09:52:27.698Z,3020
2017-03-20T09:53:27.792Z,2872
2017-03-20T09:54:27.508Z,3020
2017-03-20T09:55:27.217Z,3008
2017-03-20T09:56:27.566Z,3024
2017-03-20T09:57:27.535Z,3068
2017-03-20T09:58:27.624Z,3128
2017-03-20T09:59:27.645Z,3108
2017-03-20T10:00:27.705Z,3228
2017-03-20T10:01:27.698Z,3320
2017-03-20T10:02:28.294Z,3508
2017-03-20T10:03:27.756Z,3344
2017-03-20T10:04:27.784Z,2940
2017-03-20T10:05:28.120Z,2908
2017-03-20T10:06:27.847Z,2268
2017-03-20T10:07:28.121Z,2832
2017-03-20T10:08:27.908Z,3448
2017-03-20T10:09:28.236Z,3692
2017-03-20T10:10:27.641Z,3536
2017-03-20T10:11:28.294Z,3300
2017-03-20T10:12:28.254Z,3064
2017-03-20T10:13:28.352Z,2904
2017-03-20T10:14:27.755Z,2552
2017-03-20T10:15:28.096Z,2432
2017-03-20T10:16:28.121Z,2756
2017-03-20T10:17:28.394Z,2848
2017-03-20T10:18:27.864Z,2812
2017-03-20T10:19:28.512Z,2960
2017-03-20T10:20:28.229Z,2940
2017-03-20T10:21:28.266Z,2872
2017-03-20T10:22:28.851Z,2848
2017-03-20T10:23:28.623Z,2724
2017-03-20T10:24:28.660Z,2428
2017-03-20T10:25:28.368Z,2152
2017-03-20T10:26:28.393Z,1788
2017-03-20T10:27:28.367Z,1304
2017-03-20T10:28:28.771Z,1500
2017-03-20T10:29:28.486Z,1488
2017-03-20T10:30:28.523Z,1348
2017-03-20T10:31:28.534Z,1340
2017-03-20T10:32:29.122Z,1636
2017-03-20T10:33:28.906Z,1528
2017-03-20T10:34:28.316Z,1388
2017-03-20T10:35:28.336Z,1276
2017-03-20T10:36:28.676Z,1488
2017-03-20T10:37:29.265Z,1212
2017-03-20T10:38:28.422Z,1340
2017-03-20T10:39:29.067Z,1288
2017-03-20T10:40:29.100Z,1252
2017-03-20T10:41:29.125Z,1448
2017-03-20T10:42:28.836Z,1744
2017-03-20T10:43:29.182Z,1604
2017-03-20T10:44:28.890Z,1544
2017-03-20T10:45:28.930Z,1544
2017-03-20T10:46:28.959Z,1584
2017-03-20T10:47:29.289Z,1592
2017-03-20T10:48:29.322Z,1656
2017-03-20T10:49:29.095Z,1840
2017-03-20T10:50:29.379Z,1820
2017-03-20T10:51:28.776Z,1932
2017-03-20T10:52:28.814Z,1916
2017-03-20T10:53:29.714Z,1724
2017-03-20T10:54:28.905Z,1964
2017-03-20T10:55:29.198Z,2340
2017-03-20T10:56:29.236Z,2504
2017-03-20T10:57:29.562Z,2364
2017-03-20T10:58:29.850Z,1908
2017-03-20T10:59:29.354Z,1820
2017-03-20T11:00:29.343Z,1592
2017-03-20T11:01:29.685Z,1484
2017-03-20T11:02:29.397Z,1412
2017-03-20T11:03:29.361Z,1396
2017-03-20T11:04:29.770Z,1316
2017-03-20T11:05:29.167Z,1384
2017-03-20T11:06:29.507Z,1352
2017-03-20T11:07:29.850Z,1316
2017-03-20T11:08:29.509Z,1284
2017-03-20T11:09:29.598Z,1204
2017-03-20T11:10:29.612Z,1136
2017-03-20T11:11:29.336Z,1208
2017-03-20T11:12:29.662Z,1424
2017-03-20T11:13:30.277Z,1424
2017-03-20T11:14:30.044Z,1836
2017-03-20T11:15:29.799Z,2344
2017-03-20T11:16:29.798Z,2372
2017-03-20T11:17:29.820Z,2616
2017-03-20T11:18:30.405Z,2800
2017-03-20T11:19:30.185Z,3032
2017-03-20T11:20:30.209Z,3320
2017-03-20T11:21:29.934Z,3180
2017-03-20T11:22:29.957Z,2804
2017-03-20T11:23:30.249Z,2464
2017-03-20T11:24:30.016Z,2340
2017-03-20T11:25:30.049Z,2260
2017-03-20T11:26:30.058Z,2388
2017-03-20T11:27:30.401Z,2556
2017-03-20T11:28:30.380Z,2604
2017-03-20T11:29:30.462Z,2728
2017-03-20T11:30:30.216Z,3044
2017-03-20T11:31:30.203Z,3172
2017-03-20T11:32:30.255Z,3000
2017-03-20T11:33:30.511Z,3064
2017-03-20T11:34:30.605Z,3236
2017-03-20T11:35:30.630Z,3292
2017-03-20T11:36:30.657Z,3304
2017-03-20T11:37:30.372Z,3384
2017-03-20T11:38:30.328Z,3544
2017-03-20T11:39:30.733Z,3648
2017-03-20T11:40:30.754Z,3600
2017-03-20T11:41:30.487Z,3632
2017-03-20T11:42:30.192Z,3660
2017-03-20T11:43:31.097Z,3772
2017-03-20T11:44:29.936Z,3932
2017-03-20T11:45:30.325Z,3568
2017-03-20T11:46:30.614Z,3652
2017-03-20T11:47:30.951Z,3996
2017-03-20T11:48:31.237Z,4416
2017-03-20T11:49:31.017Z,5024
2017-03-20T11:50:30.726Z,5636
2017-03-20T11:51:31.065Z,5664
2017-03-20T11:52:30.778Z,5372
2017-03-20T11:53:31.064Z,5568
2017-03-20T11:54:31.164Z,5352
2017-03-20T11:55:31.176Z,4684
2017-03-20T11:56:31.209Z,4240
2017-03-20T11:57:30.931Z,3776
2017-03-20T11:58:31.512Z,3236
2017-03-20T11:59:30.675Z,3032
2017-03-20T12:00:31.009Z,3060
2017-03-20T12:01:31.354Z,2624
2017-03-20T12:02:30.440Z,3028
2017-03-20T12:03:31.655Z,2848
2017-03-20T12:04:31.124Z,2992
2017-03-20T12:05:31.149Z,3448
2017-03-20T12:06:31.187Z,3364
2017-03-20T12:07:31.199Z,3432
2017-03-20T12:08:31.492Z,3532
2017-03-20T12:09:31.568Z,3400
2017-03-20T12:10:31.592Z,3380
2017-03-20T12:11:31.316Z,3288
2017-03-20T12:12:31.346Z,3432
2017-03-20T12:13:31.938Z,3312
2017-03-20T12:14:31.715Z,2860
2017-03-20T12:15:31.421Z,2852
2017-03-20T12:16:31.769Z,2440
2017-03-20T12:17:31.486Z,2296
2017-03-20T12:18:32.072Z,2220
2017-03-20T12:19:31.544Z,2412
2017-03-20T12:20:31.871Z,2724
2017-03-20T12:21:31.901Z,2488
2017-03-20T12:22:31.935Z,2324
2017-03-20T12:23:32.219Z,2128
2017-03-20T12:24:31.995Z,2112
2017-03-20T12:25:32.021Z,2004
2017-03-20T12:26:32.057Z,2020
2017-03-20T12:27:31.757Z,2108
2017-03-20T12:28:31.740Z,2092
2017-03-20T12:29:32.136Z,2156
2017-03-20T12:30:31.841Z,2328
2017-03-20T12:31:31.864Z,2144
2017-03-20T12:32:32.222Z,2108
2017-03-20T12:33:32.186Z,2356
2017-03-20T12:34:32.268Z,2716
2017-03-20T12:35:31.980Z,2804
2017-03-20T12:36:31.696Z,2852
2017-03-20T12:37:31.427Z,2984
2017-03-20T12:38:32.008Z,3292
2017-03-20T12:39:31.784Z,3308
2017-03-20T12:40:32.120Z,3268
2017-03-20T12:41:32.465Z,3452
2017-03-20T12:42:32.486Z,3248
2017-03-20T12:43:32.459Z,3268
2017-03-20T12:44:32.547Z,3500
2017-03-20T12:45:31.952Z,3232
2017-03-20T12:46:32.604Z,3176
2017-03-20T12:47:32.310Z,3332
2017-03-20T12:48:32.917Z,3832
2017-03-20T12:49:32.687Z,3228
2017-03-20T12:50:32.086Z,2896
2017-03-20T12:51:32.428Z,2196
2017-03-20T12:52:32.461Z,1828
2017-03-20T12:53:33.045Z,2108
2017-03-20T12:54:32.835Z,2868
2017-03-20T12:55:32.540Z,2856
2017-03-20T12:56:32.893Z,2628
2017-03-20T12:57:32.297Z,2320
2017-03-20T12:58:33.198Z,2280
2017-03-20T12:59:32.974Z,2316
2017-03-20T13:00:32.995Z,2196
2017-03-20T13:01:33.012Z,2256
2017-03-20T13:02:33.037Z,2548
2017-03-20T13:03:33.333Z,2672
2017-03-20T13:04:33.118Z,2712
2017-03-20T13:05:32.823Z,2800
2017-03-20T13:06:33.159Z,2356
2017-03-20T13:07:33.188Z,1872
2017-03-20T13:08:33.469Z,1740
2017-03-20T13:09:33.246Z,1624
2017-03-20T13:10:32.652Z,2008
2017-03-20T13:11:32.983Z,2208
2017-03-20T13:12:33.017Z,2128
2017-03-20T13:13:33.292Z,1948
2017-03-20T13:14:33.075Z,1580
2017-03-20T13:15:33.415Z,1492
2017-03-20T13:16:33.436Z,1732
2017-03-20T13:17:33.151Z,1996
2017-03-20T13:18:33.753Z,2476
2017-03-20T13:19:32.922Z,3024
2017-03-20T13:20:33.562Z,3256
2017-03-20T13:21:33.571Z,3300
2017-03-20T13:22:33.291Z,2760
2017-03-20T13:23:33.260Z,2112
2017-03-20T13:24:33.038Z,1560
2017-03-20T13:25:33.383Z,1608
2017-03-20T13:26:33.083Z,1416
2017-03-20T13:27:33.427Z,1532
2017-03-20T13:28:33.716Z,1396
2017-03-20T13:29:33.805Z,1344
2017-03-20T13:30:33.522Z,1280
2017-03-20T13:31:33.243Z,1224
2017-03-20T13:32:33.260Z,1312
2017-03-20T13:33:33.853Z,1340
2017-03-20T13:34:33.621Z,1308
2017-03-20T13:35:33.650Z,1324
2017-03-20T13:36:33.368Z,1448
2017-03-20T13:37:33.732Z,1532
2017-03-20T13:38:34.315Z,1508
2017-03-20T13:39:33.765Z,1664
2017-03-20T13:40:33.797Z,1720
2017-03-20T13:41:34.135Z,1500
2017-03-20T13:42:34.169Z,1704
2017-03-20T13:43:33.876Z,1896
2017-03-20T13:44:33.916Z,2128
2017-03-20T13:45:34.249Z,1996
2017-03-20T13:46:34.267Z,2080
2017-03-20T13:47:33.667Z,1904
2017-03-20T13:48:34.329Z,2020
2017-03-20T13:49:34.356Z,2124
2017-03-20T13:50:34.382Z,2080
2017-03-20T13:51:34.405Z,2196
2017-03-20T13:52:34.434Z,2368
2017-03-20T13:53:34.468Z,2688
2017-03-20T13:54:34.185Z,3420
2017-03-20T13:55:34.513Z,3780
2017-03-20T13:56:34.611Z,3488